Garland Springs, Arkansas
Current Conditions -  °F | °C
As of 9:56 PM on Thursday 27 Nov 2014 (Local Time) from KSRC Reporting Station
Clear Clear  
Wind Chill: 30°   Ceiling: Unl
Heat Index: 30°   Visibility: 10mi
Dew Point: 28°   Wind: 0mph
Humidity: 92%   Direction: NA
Pressure: 30.47"   Gusts: NA
Location:  35.2847°N, 92.1468°W
Report Text: KSRC 280356Z AUTO 00000KT 10SM CLR M01/M02 A3047 RMK AO2 SLP326 T10111022 FZRANO TSNO
Loading
Personal Weather Stations






























Interactive Weather Map New forecast layout! Learn more

10-Day Weather Forecast

Advertisements
Track Severe Weather on mobile